ADDS METAR Data INFO
IDs: Format: Raw Decoded Include TAF

Data at: 0900 UTC 20 Oct 2017

KSUX 200852Z 11007KT 10SM CLR 10/09 A2991 RMK AO2 SLP125 T01000089 58003
KSUX 200752Z 13009KT 10SM CLR 11/09 A2992 RMK AO2 SLP128 T01110094
KSUX 200652Z 13009KT 10SM CLR 11/10 A2992 RMK AO2 SLP128 T01110100
KSUX 200552Z 13008KT 10SM CLR 11/10 A2992 RMK AO2 SLP129 T01110100 10206 20111 402440022 58003
KSUX 200452Z 13007KT 10SM CLR 13/11 A2992 RMK AO2 SLP132 T01330111
KSUX 200352Z 14008KT 10SM CLR 16/12 A2993 RMK AO2 SLP132 T01610117
KSUX 200252Z 13007KT 10SM CLR 13/11 A2993 RMK AO2 SLP135 T01280106 58002
KSUX 200152Z 12006KT 10SM CLR 14/11 A2993 RMK AO2 SLP138 T01390111
KSUX 200052Z 13008KT 10SM CLR 17/11 A2994 RMK AO2 SLP140 T01720111
KSUX 192352Z 15008KT 10SM CLR 21/12 A2993 RMK AO2 SLP138 T02060117 10244 20206 56008
KSUX 192252Z 16008KT 10SM CLR 23/12 A2994 RMK AO2 SLP138 T02280117
KSUX 192152Z 17010KT 10SM CLR 24/11 A2995 RMK AO2 SLP141 T02440106
KSUX 192052Z AUTO 16010G18KT 10SM CLR 24/11 A2996 RMK AO2 SLP144 T02440111 56029
KSUX 191952Z AUTO 16013G18KT 10SM CLR 23/10 A2997 RMK AO2 SLP151 T02330100
KSUX 191852Z 16013G16KT 10SM CLR 23/10 A3000 RMK AO2 SLP161 T02280100
KSUX 191752Z 16013KT 10SM CLR 21/09 A3005 RMK AO2 SLP175 T02110094 10211 20022 58008
KSUX 191652Z 16011G17KT 10SM CLR 18/08 A3006 RMK AO2 SLP182 T01830078
KSUX 191552Z 16008KT 10SM CLR 16/06 A3007 RMK AO2 SLP183 T01610061
KSUX 191452Z 14008KT 10SM CLR 12/06 A3007 RMK AO2 SLP186 T01170056 53002
KSUX 191352Z 11006KT 10SM CLR 07/04 A3006 RMK AO2 SLP186 T00670044
KSUX 191252Z 13004KT 10SM CLR 03/02 A3006 RMK AO2 SLP183 T00280022
KSUX 191152Z 12004KT 10SM CLR 03/02 A3006 RMK AO2 SLP185 I1000 I6000 T00280022 10067 20022 55000 $
KSUX 191052Z 08003KT 10SM CLR 04/03 A3007 RMK AO2 SLP184 T00390028 $
KSUX 190952Z 03003KT 10SM CLR 04/03 A3006 RMK AO2 SLP179 T00440033 $
KSUX 190852Z 22003KT 8SM CLR 03/03 A3006 RMK AO2 SLP181 T00330033 50003 $
KSUX 190752Z 25003KT 7SM CLR 04/03 A3006 RMK AO2 SLP181 T00390033
KSUX 190652Z 31004KT 6SM BR CLR 05/04 A3006 RMK AO2 SLP180 T00500044
KSUX 190552Z 33003KT 10SM CLR 07/05 A3005 RMK AO2 SLP178 T00720050 10161 20061 402280061 51002
KSUX 190452Z 00000KT 10SM CLR 07/05 A3005 RMK AO2 SLP177 T00670050
KSUX 190352Z 00000KT 10SM CLR 08/05 A3005 RMK AO2 SLP179 T00830050
KSUX 190252Z 25005KT 10SM CLR 09/06 A3005 RMK AO2 SLP178 T00890061 51014
KSUX 190152Z 27003KT 10SM CLR 09/07 A3004 RMK AO2 SLP176 T00940067
KSUX 190052Z 35005KT 6SM HZ CLR 13/06 A3002 RMK AO2 SLP170 T01330061
KSUX 182352Z 32005KT 10SM CLR 15/07 A3001 RMK AO2 SLP163 T01500067 10228 20150 53021
KSUX 182252Z 36006KT 10SM CLR 19/09 A2998 RMK AO2 SLP152 T01940089
KSUX 182152Z 02008KT 10SM CLR 22/07 A2996 RMK AO2 SLP145 T02220067